Time;durP1;ratioP1;P1;durP2;ratioP2;P2;SDS_P1;SDS_P2;PMS_P1;PMS_P2;Temp;Humidity;BMP_temperature;BMP_pressure;BME280_temperature;BME280_humidity;BME280_pressure;Samples;Min_cycle;Max_cycle;Signal;HPM_P1;HPM_P2
2023/05/15 00:01:30;;;;;;;7.82;7.22;;;;;;;12.16;96.57;95019.28;5041268;28;20194;-68
2023/05/15 00:03:57;;;;;;;7.45;6.75;;;;;;;12.22;96.05;95028.41;5041314;28;21807;-70
2023/05/15 00:06:24;;;;;;;9.90;6.72;;;;;;;12.14;96.55;95015.97;5039958;28;20776;-71
2023/05/15 00:08:52;;;;;;;8.00;6.97;;;;;;;12.12;96.45;95017.78;5042404;28;20285;-70
2023/05/15 00:11:19;;;;;;;6.45;5.95;;;;;;;12.30;96.09;95026.38;5041647;28;20688;-70
2023/05/15 00:13:45;;;;;;;6.68;6.18;;;;;;;12.39;95.96;95037.91;5042443;28;20293;-70
2023/05/15 00:16:12;;;;;;;7.32;6.72;;;;;;;12.53;95.23;95048.38;5041364;28;20297;-71
2023/05/15 00:18:39;;;;;;;6.30;5.75;;;;;;;12.55;94.78;95056.78;5040202;28;20428;-72
2023/05/15 00:21:06;;;;;;;6.18;5.63;;;;;;;12.60;94.14;95049.78;5041761;28;20202;-72
2023/05/15 00:23:32;;;;;;;6.78;6.28;;;;;;;12.57;93.74;95042.28;5040980;28;20309;-71
2023/05/15 00:26:00;;;;;;;6.00;5.50;;;;;;;12.48;94.42;95040.09;5000925;28;20322;-70
2023/05/15 00:28:27;;;;;;;6.35;5.68;;;;;;;12.47;95.05;95040.97;5001644;28;20294;-71
2023/05/15 00:30:54;;;;;;;7.15;6.45;;;;;;;12.45;94.99;95050.41;5002442;28;20203;-71
2023/05/15 00:33:20;;;;;;;6.18;5.78;;;;;;;12.43;95.60;95052.19;5000121;28;20231;-71
2023/05/15 00:35:47;;;;;;;6.53;6.13;;;;;;;12.48;95.33;95055.38;5000583;28;20290;-71
2023/05/15 00:38:14;;;;;;;6.25;5.75;;;;;;;12.49;95.11;95047.69;5002125;28;20348;-70
2023/05/15 00:40:42;;;;;;;6.20;5.68;;;;;;;12.59;94.44;95043.03;5000192;28;20280;-71
2023/05/15 00:43:11;;;;;;;6.25;5.85;;;;;;;12.49;94.54;95027.28;4997855;28;20262;-68
2023/05/15 00:45:40;;;;;;;6.43;6.00;;;;;;;12.39;95.08;95026.00;5000971;28;20211;-67
2023/05/15 00:48:09;;;;;;;6.80;6.30;;;;;;;12.38;95.68;95038.78;4998725;28;20686;-72
2023/05/15 00:50:37;;;;;;;6.70;6.07;;;;;;;12.42;95.53;95046.25;5001404;28;20220;-70
2023/05/15 00:53:03;;;;;;;6.57;6.07;;;;;;;12.27;95.65;95027.34;5001552;28;20240;-71
2023/05/15 00:55:33;;;;;;;7.25;6.57;;;;;;;12.31;95.73;95042.50;5000753;28;20357;-68
2023/05/15 00:58:01;;;;;;;6.97;6.22;;;;;;;12.30;96.00;95040.84;5001942;28;20302;-72
2023/05/15 01:00:31;;;;;;;6.20;5.70;;;;;;;12.23;95.99;95053.81;5000941;28;20318;-69
2023/05/15 01:02:59;;;;;;;6.15;5.75;;;;;;;12.20;96.26;95059.03;4999497;28;20315;-72
2023/05/15 01:05:25;;;;;;;6.65;6.22;;;;;;;12.20;96.16;95046.31;4999746;28;20763;-69
2023/05/15 01:07:59;;;;;;;7.45;6.70;;;;;;;12.20;95.77;95043.75;5000429;28;20279;-69
2023/05/15 01:10:26;;;;;;;7.18;6.60;;;;;;;12.17;95.75;95037.94;5002239;28;20266;-70
2023/05/15 01:12:55;;;;;;;7.05;6.45;;;;;;;12.37;95.20;95048.19;5004304;28;20740;-71
2023/05/15 01:15:23;;;;;;;9.55;7.43;;;;;;;12.29;95.40;95036.63;5002967;28;20690;-71
2023/05/15 01:17:51;;;;;;;9.02;8.00;;;;;;;12.37;94.74;95026.97;5002983;28;20319;-71
2023/05/15 01:20:19;;;;;;;7.25;6.80;;;;;;;12.34;94.80;95016.91;5002691;28;20234;-71
2023/05/15 01:22:56;;;;;;;7.82;6.38;;;;;;;12.37;94.58;95019.34;5003254;28;20207;-71
2023/05/15 01:25:51;;;;;;;7.25;6.75;;;;;;;12.29;94.76;95023.91;5031451;28;20334;-71
2023/05/15 01:28:24;;;;;;;6.82;6.32;;;;;;;12.38;94.67;95010.75;5041959;28;21344;-70
2023/05/15 01:30:54;;;;;;;7.53;7.03;;;;;;;12.47;94.28;94995.09;5043033;28;20765;-68
2023/05/15 01:33:24;;;;;;;11.77;6.97;;;;;;;12.36;94.11;95004.94;5043337;28;20788;-70
2023/05/15 01:36:07;;;;;;;7.32;6.70;;;;;;;12.26;94.56;95009.56;5043235;28;20297;-70
2023/05/15 01:38:38;;;;;;;7.47;6.55;;;;;;;12.20;94.45;95013.19;5045037;28;20328;-72
2023/05/15 01:41:11;;;;;;;7.05;6.30;;;;;;;12.33;94.12;94999.97;5045470;28;20591;-70
2023/05/15 01:43:42;;;;;;;7.72;7.03;;;;;;;12.31;94.43;95000.03;5042919;28;20199;-70
2023/05/15 01:46:12;;;;;;;7.50;6.78;;;;;;;12.29;94.40;94999.25;5042429;28;20925;-74
2023/05/15 01:48:41;;;;;;;9.25;8.55;;;;;;;12.26;94.52;94995.09;5044664;28;20423;-72
2023/05/15 01:51:10;;;;;;;16.17;14.68;;;;;;;12.29;93.95;95003.53;5042951;28;20231;-73
2023/05/15 01:53:38;;;;;;;18.70;16.80;;;;;;;12.38;93.86;94998.84;5043910;28;20286;-72
2023/05/15 01:56:08;;;;;;;15.43;12.35;;;;;;;12.31;93.75;94996.66;5042694;28;20275;-71
2023/05/15 01:58:37;;;;;;;12.32;11.00;;;;;;;12.14;94.52;95005.78;5043161;28;20615;-73
2023/05/15 02:01:05;;;;;;;10.90;9.93;;;;;;;12.20;94.42;94992.81;5043511;28;20321;-70
2023/05/15 02:03:33;;;;;;;10.25;9.45;;;;;;;12.24;94.00;95001.16;5043096;28;20968;-70
2023/05/15 02:06:01;;;;;;;12.77;10.13;;;;;;;12.02;94.55;95008.84;5043850;28;20711;-70
2023/05/15 02:08:28;;;;;;;10.20;8.98;;;;;;;11.96;95.33;95014.16;5042910;28;20747;-70
2023/05/15 02:10:56;;;;;;;9.52;8.82;;;;;;;12.00;95.24;95015.72;5043212;28;20218;-69
2023/05/15 02:13:25;;;;;;;11.88;9.18;;;;;;;12.11;95.12;95008.47;5042738;28;20227;-70
2023/05/15 02:15:52;;;;;;;9.80;9.00;;;;;;;12.17;94.74;95000.56;5043306;28;20211;-70
2023/05/15 02:18:20;;;;;;;10.20;9.30;;;;;;;12.29;94.49;94985.69;5041498;28;20297;-70
2023/05/15 02:20:47;;;;;;;8.98;8.20;;;;;;;12.10;94.55;94990.72;5041553;28;20890;-71
2023/05/15 02:23:14;;;;;;;9.80;8.55;;;;;;;12.12;95.16;95002.50;5041406;28;20302;-70
2023/05/15 02:25:49;;;;;;;9.55;8.65;;;;;;;12.17;95.33;95003.13;5042445;28;20661;-70
2023/05/15 02:28:24;;;;;;;10.68;9.57;;;;;;;12.33;94.81;94984.66;5042867;28;20772;-70
2023/05/15 02:30:58;;;;;;;9.23;8.43;;;;;;;12.35;94.68;94980.34;5043584;28;20198;-72
2023/05/15 02:33:35;;;;;;;9.27;8.57;;;;;;;12.49;94.00;94962.72;5042160;28;20530;-71
2023/05/15 02:36:07;;;;;;;25.75;8.13;;;;;;;12.49;93.79;94965.28;5042157;28;20290;-70
2023/05/15 02:38:38;;;;;;;8.65;8.05;;;;;;;12.29;94.35;94972.94;5042729;28;20204;-72
2023/05/15 02:41:06;;;;;;;8.43;7.72;;;;;;;12.23;95.26;94977.41;5042581;28;20321;-73
2023/05/15 02:43:33;;;;;;;9.10;8.45;;;;;;;12.29;95.24;94988.22;5042650;28;20288;-72
2023/05/15 02:46:00;;;;;;;11.10;9.70;;;;;;;12.34;95.11;94991.41;5042178;28;20289;-72
2023/05/15 02:48:29;;;;;;;9.93;9.13;;;;;;;12.35;95.10;94993.91;5042012;28;20739;-73
2023/05/15 02:50:56;;;;;;;9.45;8.57;;;;;;;12.38;95.25;94982.72;5040301;28;20313;-70
2023/05/15 02:53:22;;;;;;;9.90;9.13;;;;;;;12.42;94.46;94968.97;5041372;28;20355;-69
2023/05/15 02:55:49;;;;;;;9.82;8.85;;;;;;;12.51;92.84;94958.41;5040606;28;20317;-72
2023/05/15 02:58:16;;;;;;;10.30;9.05;;;;;;;12.43;93.76;94970.63;5040215;28;20230;-69
2023/05/15 03:00:43;;;;;;;9.25;8.52;;;;;;;12.41;94.03;94967.31;5041336;28;20795;-71
2023/05/15 03:03:09;;;;;;;9.25;8.40;;;;;;;12.37;94.59;94960.72;5045143;28;20676;-71
2023/05/15 03:05:37;;;;;;;8.85;8.20;;;;;;;12.41;94.56;94978.34;5042289;28;20703;-71
2023/05/15 03:08:05;;;;;;;11.20;9.38;;;;;;;12.39;94.21;94976.75;5042646;28;20198;-71
2023/05/15 03:10:32;;;;;;;9.73;8.85;;;;;;;12.37;94.75;94981.94;5040054;28;20293;-72
2023/05/15 03:12:59;;;;;;;11.50;10.32;;;;;;;12.47;94.16;94990.00;5041669;28;20213;-72
2023/05/15 03:15:25;;;;;;;11.02;9.93;;;;;;;12.41;94.12;94990.25;5040861;28;20306;-72
2023/05/15 03:17:52;;;;;;;9.82;8.93;;;;;;;12.49;94.05;94983.94;5040993;28;20293;-71
2023/05/15 03:20:19;;;;;;;12.00;10.82;;;;;;;12.58;92.34;94991.22;5040870;28;20231;-71
2023/05/15 03:22:47;;;;;;;10.40;9.50;;;;;;;12.50;92.80;94987.34;5040919;28;20693;-72
2023/05/15 03:25:13;;;;;;;10.27;9.38;;;;;;;12.47;92.96;94987.47;5040265;28;20380;-74
2023/05/15 03:27:40;;;;;;;10.85;10.05;;;;;;;12.34;93.79;94976.13;5040282;28;20875;-71
2023/05/15 03:30:08;;;;;;;12.18;10.98;;;;;;;12.26;94.75;94984.91;5041369;28;20330;-70
2023/05/15 03:32:34;;;;;;;10.52;9.50;;;;;;;12.24;95.20;94981.59;5042702;28;20295;-71
2023/05/15 03:35:01;;;;;;;10.48;9.63;;;;;;;12.38;94.67;94970.00;5042007;28;20305;-73
2023/05/15 03:37:28;;;;;;;11.18;10.07;;;;;;;12.56;93.21;94966.69;5042995;28;20301;-74
2023/05/15 03:39:56;;;;;;;11.98;10.75;;;;;;;12.41;93.65;94967.31;5042122;28;20719;-71
2023/05/15 03:42:23;;;;;;;10.80;8.85;;;;;;;12.41;94.70;94969.88;5042324;28;20302;-71
2023/05/15 03:44:50;;;;;;;11.75;10.55;;;;;;;12.49;94.76;94980.56;5042211;28;20236;-72
2023/05/15 03:47:17;;;;;;;11.70;9.93;;;;;;;12.54;94.53;94978.66;5042464;28;20283;-73
2023/05/15 03:49:44;;;;;;;10.27;9.18;;;;;;;12.58;94.68;94977.66;5041208;28;20287;-70
2023/05/15 03:52:11;;;;;;;12.77;9.88;;;;;;;12.63;94.23;94979.97;5042617;28;21126;-72
2023/05/15 03:54:37;;;;;;;10.75;9.77;;;;;;;12.67;94.61;94984.88;5041822;28;20747;-72
2023/05/15 03:57:06;;;;;;;19.13;16.20;;;;;;;12.75;94.31;94974.38;5041804;28;20383;-71
2023/05/15 03:59:33;;;;;;;12.85;11.65;;;;;;;12.82;93.66;94979.16;5041434;28;20198;-71
2023/05/15 04:02:00;;;;;;;13.63;12.23;;;;;;;12.86;93.40;94984.94;5041679;28;20914;-69
2023/05/15 04:04:26;;;;;;;19.65;13.98;;;;;;;12.89;93.44;94985.59;5041739;28;20753;-72
2023/05/15 04:06:53;;;;;;;12.80;11.60;;;;;;;12.89;93.74;94977.97;5042016;28;20320;-71
2023/05/15 04:09:19;;;;;;;12.38;10.30;;;;;;;12.92;93.05;94975.28;5041128;28;20730;-70
2023/05/15 04:11:46;;;;;;;11.52;10.40;;;;;;;13.04;91.57;94980.75;5041927;28;20289;-71
2023/05/15 04:14:14;;;;;;;11.00;9.90;;;;;;;12.87;92.16;94991.66;5042131;28;20966;-72
2023/05/15 04:16:41;;;;;;;12.23;10.65;;;;;;;12.84;92.39;94995.19;5041786;28;20281;-70
2023/05/15 04:19:07;;;;;;;11.07;9.88;;;;;;;12.93;90.94;94996.50;5041976;28;20203;-71
2023/05/15 04:21:34;;;;;;;11.88;10.80;;;;;;;12.81;91.29;95005.53;5041525;28;20440;-71
2023/05/15 04:24:01;;;;;;;11.73;10.52;;;;;;;12.93;91.74;95005.00;5040069;28;22039;-70
2023/05/15 04:26:27;;;;;;;13.60;10.63;;;;;;;12.96;90.84;94991.28;5039404;28;20305;-70
2023/05/15 04:28:55;;;;;;;11.32;10.13;;;;;;;12.88;91.37;94998.44;5040863;28;20317;-69
2023/05/15 04:31:23;;;;;;;15.43;10.55;;;;;;;12.92;90.73;94975.28;5041302;28;20585;-72
2023/05/15 04:33:50;;;;;;;12.68;11.18;;;;;;;13.12;90.08;94978.66;5042616;28;20276;-69
2023/05/15 04:36:16;;;;;;;12.73;10.82;;;;;;;13.09;90.17;94976.28;5041846;28;20355;-68
2023/05/15 04:38:43;;;;;;;11.63;10.43;;;;;;;13.16;90.23;94977.66;5041409;28;20293;-71
2023/05/15 04:41:10;;;;;;;12.32;11.10;;;;;;;13.15;90.13;94965.75;5041307;28;20347;-69
2023/05/15 04:43:36;;;;;;;11.52;10.38;;;;;;;13.18;90.24;94950.34;5041974;28;20233;-70
2023/05/15 04:46:03;;;;;;;11.38;10.32;;;;;;;13.07;91.31;94947.44;5043970;28;20352;-69
2023/05/15 04:48:31;;;;;;;13.98;12.00;;;;;;;12.83;91.73;94968.03;5044579;28;20211;-71
2023/05/15 04:50:58;;;;;;;18.05;12.07;;;;;;;12.90;92.63;94982.16;5044914;28;21369;-71
2023/05/15 04:53:25;;;;;;;18.17;14.80;;;;;;;13.11;92.26;94977.03;5045932;28;20298;-70
2023/05/15 04:55:52;;;;;;;12.88;11.30;;;;;;;13.29;91.62;94978.78;5044351;28;20779;-73
2023/05/15 04:58:19;;;;;;;14.23;12.77;;;;;;;13.38;90.25;94973.25;5044623;28;20230;-70
2023/05/15 05:00:45;;;;;;;12.43;11.18;;;;;;;13.28;90.09;94972.03;5044327;28;20313;-71
2023/05/15 05:03:12;;;;;;;12.50;11.27;;;;;;;13.28;90.19;94972.03;5044928;28;20700;-72
2023/05/15 05:05:40;;;;;;;13.48;12.18;;;;;;;13.39;89.88;94967.22;5045265;28;20210;-72
2023/05/15 05:08:07;;;;;;;14.30;11.13;;;;;;;13.10;90.90;94957.50;5044366;28;20304;-73
2023/05/15 05:10:33;;;;;;;16.35;11.98;;;;;;;12.82;92.16;94953.63;5044901;28;20348;-71
2023/05/15 05:13:00;;;;;;;14.00;12.48;;;;;;;12.58;93.54;94952.16;5044559;28;20210;-71
2023/05/15 05:15:27;;;;;;;14.63;12.98;;;;;;;12.46;94.08;94961.13;5042821;28;20267;-71
2023/05/15 05:17:53;;;;;;;12.60;11.40;;;;;;;12.56;94.57;94972.63;5043556;28;20203;-73
2023/05/15 05:20:20;;;;;;;13.52;12.25;;;;;;;12.80;93.11;94967.34;5043896;28;20333;-73
2023/05/15 05:22:48;;;;;;;15.93;12.65;;;;;;;12.58;93.48;94952.16;5043915;28;20293;-72
2023/05/15 05:25:15;;;;;;;15.43;12.43;;;;;;;12.74;93.08;94950.59;5042596;28;20291;-71
2023/05/15 05:27:42;;;;;;;13.50;12.07;;;;;;;12.67;93.24;94977.22;5043794;28;20320;-72
2023/05/15 05:30:09;;;;;;;12.90;11.70;;;;;;;12.72;93.36;94972.78;5045097;28;20297;-70
2023/05/15 05:32:36;;;;;;;14.15;12.75;;;;;;;12.93;92.54;94959.06;5044330;28;20788;-71
2023/05/15 05:35:03;;;;;;;14.80;12.65;;;;;;;12.95;92.10;94954.75;5044970;28;20655;-72
2023/05/15 05:37:30;;;;;;;15.02;12.65;;;;;;;13.06;91.75;94956.00;5043661;28;20214;-70
2023/05/15 05:39:58;;;;;;;14.23;12.02;;;;;;;13.34;90.88;94959.00;5044219;28;20213;-72
2023/05/15 05:42:25;;;;;;;16.55;13.25;;;;;;;13.47;90.33;94952.41;5045296;28;20230;-72
2023/05/15 05:44:52;;;;;;;15.30;12.73;;;;;;;13.55;90.01;94964.81;5044061;28;20210;-72
2023/05/15 05:47:19;;;;;;;15.35;12.70;;;;;;;13.70;89.23;94963.25;5043410;28;20290;-70
2023/05/15 05:49:46;;;;;;;15.15;12.18;;;;;;;14.13;88.33;94952.63;5043326;28;20288;-70
2023/05/15 05:52:14;;;;;;;14.50;12.20;;;;;;;14.56;86.72;94955.66;5042907;28;20208;-73
2023/05/15 05:54:41;;;;;;;13.50;12.10;;;;;;;14.92;85.02;94958.84;5044538;28;20213;-72
2023/05/15 05:57:09;;;;;;;12.98;11.68;;;;;;;15.57;83.09;94964.00;5044161;28;20304;-70
2023/05/15 05:59:36;;;;;;;12.38;11.15;;;;;;;16.71;77.94;94966.91;5043614;28;20253;-73
2023/05/15 06:02:03;;;;;;;11.65;10.40;;;;;;;17.51;74.39;94963.75;5043453;28;20226;-73
2023/05/15 06:04:32;;;;;;;12.07;10.85;;;;;;;17.04;72.71;94958.94;5044866;28;20243;-72
2023/05/15 06:06:58;;;;;;;12.40;11.25;;;;;;;16.38;75.16;94969.66;5044722;28;20295;-72
2023/05/15 06:09:25;;;;;;;13.45;11.02;;;;;;;15.97;76.78;94965.97;5042898;28;20283;-73
2023/05/15 06:11:52;;;;;;;12.02;10.77;;;;;;;16.29;77.24;94965.91;5045924;28;20198;-72
2023/05/15 06:14:20;;;;;;;14.60;11.35;;;;;;;17.04;73.30;94954.66;5045139;28;20229;-71
2023/05/15 06:16:47;;;;;;;11.45;10.23;;;;;;;17.24;71.57;94945.72;5043576;28;20333;-71
2023/05/15 06:19:13;;;;;;;12.45;10.93;;;;;;;17.18;72.19;94943.53;5043259;28;20359;-70
2023/05/15 06:21:40;;;;;;;12.20;10.82;;;;;;;16.76;73.70;94954.66;5042935;28;20844;-73
2023/05/15 06:24:07;;;;;;;16.83;12.02;;;;;;;16.47;74.78;94956.31;5043426;28;20310;-71
2023/05/15 06:26:33;;;;;;;18.75;10.68;;;;;;;16.36;75.96;94956.09;5043226;28;20710;-71
2023/05/15 06:29:00;;;;;;;17.10;13.07;;;;;;;16.49;75.99;94963.00;5042345;28;20293;-72
2023/05/15 06:31:28;;;;;;;20.67;12.70;;;;;;;15.95;76.66;94961.84;5043298;28;20287;-71
2023/05/15 06:33:55;;;;;;;18.33;12.00;;;;;;;16.90;74.00;94960.59;5044651;28;20326;-70
2023/05/15 06:36:21;;;;;;;16.35;12.38;;;;;;;17.15;71.46;94966.81;5043232;28;20427;-73
2023/05/15 06:38:48;;;;;;;17.50;12.50;;;;;;;17.02;72.61;94971.06;5043783;28;20299;-70
2023/05/15 06:41:15;;;;;;;15.57;13.13;;;;;;;16.74;73.93;94966.75;5043798;28;20333;-72
2023/05/15 06:43:41;;;;;;;18.75;12.38;;;;;;;16.73;73.88;94970.22;5044528;28;20233;-70
2023/05/15 06:46:08;;;;;;;18.13;14.10;;;;;;;16.59;74.05;94971.81;5042269;28;20234;-69
2023/05/15 06:48:36;;;;;;;15.50;12.88;;;;;;;16.91;73.29;94969.94;5043536;28;20230;-71
2023/05/15 06:51:03;;;;;;;15.57;12.15;;;;;;;16.80;73.16;94971.50;5042111;28;20329;-71
2023/05/15 06:53:30;;;;;;;14.88;11.52;;;;;;;17.36;72.67;94968.06;5042568;28;20697;-71
2023/05/15 06:55:56;;;;;;;15.88;12.38;;;;;;;18.85;66.99;94979.03;5041931;28;20294;-72
2023/05/15 06:58:24;;;;;;;11.45;10.07;;;;;;;19.90;62.84;94968.34;5042353;28;20242;-71
2023/05/15 07:00:50;;;;;;;14.48;11.20;;;;;;;21.12;58.88;94969.63;5042424;28;20724;-71
2023/05/15 07:03:17;;;;;;;15.23;11.73;;;;;;;22.27;55.94;94964.88;5043233;28;20289;-72
2023/05/15 07:05:45;;;;;;;12.25;11.05;;;;;;;22.37;54.24;94945.88;5042621;28;20206;-74
2023/05/15 07:08:12;;;;;;;15.13;11.50;;;;;;;21.67;55.30;94963.63;5042831;28;20206;-70
2023/05/15 07:10:38;;;;;;;12.55;11.35;;;;;;;20.94;57.89;94953.75;5041970;28;20307;-71
2023/05/15 07:13:05;;;;;;;11.43;10.15;;;;;;;19.89;60.47;94954.63;5043956;28;20207;-72
2023/05/15 07:15:32;;;;;;;14.65;10.73;;;;;;;18.88;63.68;94957.41;5042830;28;20309;-72
2023/05/15 07:17:58;;;;;;;14.40;11.05;;;;;;;18.42;65.88;94959.63;5042000;28;20730;-72
2023/05/15 07:20:25;;;;;;;12.45;10.68;;;;;;;17.72;68.07;94961.59;5042125;28;20365;-73
2023/05/15 07:22:53;;;;;;;11.63;10.50;;;;;;;17.58;68.65;94970.94;5042055;28;20328;-73
2023/05/15 07:25:20;;;;;;;11.18;9.95;;;;;;;17.31;70.36;94972.69;5041454;28;20353;-72
2023/05/15 07:27:46;;;;;;;19.75;11.80;;;;;;;17.51;70.38;94974.03;5042032;28;20210;-71
2023/05/15 07:30:14;;;;;;;13.52;11.30;;;;;;;17.46;70.15;94971.72;5043812;28;20234;-71
2023/05/15 07:32:41;;;;;;;13.15;11.07;;;;;;;17.41;71.47;94960.91;5042005;28;20287;-74
2023/05/15 07:35:10;;;;;;;16.33;10.95;;;;;;;17.32;70.69;94958.94;5043502;28;20289;-70
2023/05/15 07:37:36;;;;;;;11.75;10.55;;;;;;;17.33;70.37;94945.13;5043047;28;20209;-71
2023/05/15 07:40:06;;;;;;;13.30;10.52;;;;;;;18.05;68.85;94967.19;5041990;28;20246;-75
2023/05/15 07:42:33;;;;;;;18.17;11.02;;;;;;;18.22;67.39;94966.09;5041840;28;20691;-72
2023/05/15 07:45:00;;;;;;;11.20;9.75;;;;;;;18.35;67.12;94961.78;5042838;28;20222;-73
2023/05/15 07:47:27;;;;;;;11.13;9.88;;;;;;;17.92;68.03;94958.59;5042544;28;20293;-69
2023/05/15 07:49:53;;;;;;;13.07;10.25;;;;;;;17.24;69.82;94949.13;5041892;28;21013;-71
2023/05/15 07:52:20;;;;;;;12.57;10.93;;;;;;;16.89;72.11;94960.69;5043527;28;20290;-70
2023/05/15 07:54:46;;;;;;;15.85;10.73;;;;;;;16.84;72.93;94978.09;5041159;28;20924;-70
2023/05/15 07:57:14;;;;;;;13.98;11.20;;;;;;;17.16;72.83;94963.34;5042288;28;21316;-71
2023/05/15 07:59:41;;;;;;;15.95;12.05;;;;;;;16.97;71.64;94972.16;5041724;28;20297;-72
2023/05/15 08:02:08;;;;;;;15.30;11.80;;;;;;;16.50;73.47;94979.22;5041699;28;20218;-71
2023/05/15 08:04:35;;;;;;;13.00;11.73;;;;;;;16.55;74.22;94982.34;5040734;28;20968;-69
2023/05/15 08:07:01;;;;;;;17.05;12.32;;;;;;;16.48;74.10;94986.19;5041883;28;20301;-70
2023/05/15 08:09:28;;;;;;;14.23;12.63;;;;;;;16.19;75.00;94982.72;5040457;28;20264;-70
2023/05/15 08:11:56;;;;;;;17.23;13.90;;;;;;;16.08;75.96;94983.34;5042137;28;20206;-70
2023/05/15 08:14:24;;;;;;;14.68;11.93;;;;;;;16.03;76.33;94980.19;5041298;28;20310;-72
2023/05/15 08:16:51;;;;;;;12.82;11.25;;;;;;;15.98;76.31;94977.88;5042362;28;20202;-71
2023/05/15 08:19:18;;;;;;;15.45;11.80;;;;;;;15.97;76.79;94976.22;5041914;28;20372;-71
2023/05/15 08:21:44;;;;;;;13.25;11.85;;;;;;;16.07;76.83;94981.69;5045270;28;20670;-70
2023/05/15 08:24:11;;;;;;;13.13;11.80;;;;;;;16.18;76.48;94979.31;5045368;28;20266;-71
2023/05/15 08:26:38;;;;;;;15.55;13.25;;;;;;;16.17;76.66;94982.81;5045680;28;20267;-70
2023/05/15 08:29:05;;;;;;;20.42;13.90;;;;;;;15.96;76.59;94987.41;5045592;28;20234;-72
2023/05/15 08:31:33;;;;;;;16.50;13.95;;;;;;;16.18;76.61;94976.75;5046793;28;20282;-73
2023/05/15 08:34:02;;;;;;;20.30;14.23;;;;;;;16.49;75.14;94977.56;5046079;28;20291;-73
2023/05/15 08:36:28;;;;;;;19.88;14.65;;;;;;;16.78;73.90;94973.34;5045943;28;20297;-71
2023/05/15 08:38:55;;;;;;;18.65;14.65;;;;;;;16.90;73.82;94967.47;5046081;28;20229;-72
2023/05/15 08:41:31;;;;;;;23.90;15.80;;;;;;;17.47;73.17;94963.09;5045236;28;20318;-70
2023/05/15 08:43:58;;;;;;;20.92;15.18;;;;;;;17.93;69.66;94970.53;5044975;28;20205;-71
2023/05/15 08:46:25;;;;;;;17.63;15.02;;;;;;;18.51;68.04;94965.00;5045520;28;20293;-71
2023/05/15 08:48:54;;;;;;;17.35;12.60;;;;;;;18.07;68.08;94957.59;5045689;28;20641;-71
2023/05/15 08:51:22;;;;;;;17.58;14.73;;;;;;;17.96;68.53;94966.00;5046165;28;20222;-70
2023/05/15 08:53:49;;;;;;;13.52;12.23;;;;;;;17.78;68.21;94961.22;5045406;28;20298;-71
2023/05/15 08:56:17;;;;;;;12.95;11.65;;;;;;;17.46;69.30;94955.50;5045536;28;20259;-70
2023/05/15 08:58:44;;;;;;;15.20;12.43;;;;;;;17.15;70.86;94957.38;5044891;28;20267;-70
2023/05/15 09:01:12;;;;;;;15.48;13.00;;;;;;;16.97;72.07;94954.19;5044489;28;20206;-73
2023/05/15 09:03:39;;;;;;;16.05;11.48;;;;;;;16.59;73.26;94937.63;5045676;28;20206;-70
2023/05/15 09:06:09;;;;;;;16.08;11.75;;;;;;;16.49;73.95;94933.97;5044497;28;20202;-70
2023/05/15 09:08:37;;;;;;;17.50;12.60;;;;;;;16.54;74.56;94944.78;5044883;28;20206;-71
2023/05/15 09:11:06;;;;;;;15.13;12.55;;;;;;;16.61;74.47;94944.31;5044178;28;20294;-72
2023/05/15 09:13:33;;;;;;;15.63;12.25;;;;;;;16.58;75.38;94941.13;5045714;28;20206;-71
2023/05/15 09:16:00;;;;;;;16.90;12.00;;;;;;;16.48;75.26;94945.16;5042789;28;20305;-73
2023/05/15 09:18:27;;;;;;;14.85;13.27;;;;;;;16.48;75.92;94935.72;5042505;28;20297;-70
2023/05/15 09:20:54;;;;;;;16.80;13.05;;;;;;;16.41;76.39;94939.53;5043704;28;20739;-72
2023/05/15 09:23:27;;;;;;;13.73;12.32;;;;;;;16.39;75.60;94933.66;5042712;28;21455;-72
2023/05/15 09:25:55;;;;;;;15.63;12.25;;;;;;;16.59;74.54;94943.59;5044417;28;20336;-72
2023/05/15 09:28:27;;;;;;;17.45;13.68;;;;;;;16.87;74.65;94929.16;5045244;28;20601;-70
2023/05/15 09:30:59;;;;;;;16.10;12.35;;;;;;;17.09;73.16;94914.09;5044079;28;20206;-72
2023/05/15 09:33:31;;;;;;;15.13;12.82;;;;;;;17.53;70.96;94925.94;5044103;28;20213;-73
2023/05/15 09:35:58;;;;;;;19.23;13.32;;;;;;;17.74;70.36;94921.22;5044836;28;20297;-71
2023/05/15 09:38:26;;;;;;;15.25;12.75;;;;;;;17.53;69.82;94905.38;5045311;28;20571;-71
2023/05/15 09:41:02;;;;;;;15.25;12.38;;;;;;;17.72;69.82;94912.78;5045265;28;20206;-72
2023/05/15 09:43:29;;;;;;;14.98;12.55;;;;;;;17.88;70.16;94903.13;5044318;28;20240;-72
2023/05/15 09:45:56;;;;;;;12.98;11.70;;;;;;;17.89;68.22;94910.75;5043841;28;20698;-73
2023/05/15 09:48:23;;;;;;;13.30;11.90;;;;;;;17.63;69.51;94909.00;5045393;28;20207;-72
2023/05/15 09:50:50;;;;;;;12.35;11.15;;;;;;;17.98;68.38;94897.31;5043731;28;20725;-71
2023/05/15 09:53:16;;;;;;;16.27;12.63;;;;;;;17.46;69.20;94894.66;5044008;28;20576;-72
2023/05/15 09:55:44;;;;;;;13.13;11.70;;;;;;;17.30;71.20;94899.13;5045044;28;20207;-73
2023/05/15 09:58:13;;;;;;;12.07;10.98;;;;;;;17.23;71.15;94890.13;5044127;28;20210;-72
2023/05/15 10:00:42;;;;;;;12.00;10.65;;;;;;;17.34;70.18;94885.13;5044677;28;20696;-73
2023/05/15 10:03:09;;;;;;;16.52;12.90;;;;;;;17.51;70.51;94889.25;5044331;28;20269;-69
2023/05/15 10:05:36;;;;;;;11.95;10.70;;;;;;;17.92;69.32;94891.75;5043417;28;20204;-72
2023/05/15 10:08:04;;;;;;;13.80;11.82;;;;;;;18.15;67.49;94882.53;5044941;28;20293;-73
2023/05/15 10:10:31;;;;;;;13.25;10.57;;;;;;;18.00;68.24;94889.50;5044664;28;21256;-73
2023/05/15 10:13:03;;;;;;;16.60;12.18;;;;;;;17.78;68.98;94886.69;5042125;28;20226;-72
2023/05/15 10:15:30;;;;;;;12.05;10.88;;;;;;;17.68;69.52;94883.88;5043362;28;21010;-71
2023/05/15 10:17:57;;;;;;;12.38;10.95;;;;;;;17.65;69.27;94889.19;5044423;28;20784;-71
2023/05/15 10:20:25;;;;;;;11.73;10.55;;;;;;;17.76;69.00;94920.19;5042366;28;20746;-72
2023/05/15 10:22:53;;;;;;;13.45;11.85;;;;;;;17.82;69.28;94912.06;5044557;28;20275;-73
2023/05/15 10:25:26;;;;;;;12.30;10.88;;;;;;;17.92;69.25;94904.59;5042709;28;20265;-70
2023/05/15 10:27:54;;;;;;;15.90;12.30;;;;;;;17.89;69.09;94904.78;5043463;28;20256;-71
2023/05/15 10:30:23;;;;;;;12.60;11.40;;;;;;;18.18;69.11;94908.03;5041912;28;20288;-72
2023/05/15 10:32:51;;;;;;;13.25;11.95;;;;;;;18.01;68.36;94917.69;5043789;28;20230;-70
2023/05/15 10:35:18;;;;;;;13.98;11.40;;;;;;;18.20;68.68;94922.44;5042781;28;20230;-72
2023/05/15 10:37:46;;;;;;;14.88;11.35;;;;;;;18.00;68.77;94938.38;5043363;28;20451;-70
2023/05/15 10:40:15;;;;;;;14.82;10.95;;;;;;;17.89;69.20;94933.06;5041732;28;20279;-73
2023/05/15 10:42:43;;;;;;;12.48;10.95;;;;;;;17.83;69.19;94930.88;5041398;28;20744;-72
2023/05/15 10:45:10;;;;;;;11.27;9.60;;;;;;;17.90;69.37;94939.88;5041821;28;20711;-73
2023/05/15 10:47:40;;;;;;;16.10;11.80;;;;;;;18.12;69.05;94918.72;5042691;28;20211;-71
2023/05/15 10:50:09;;;;;;;12.18;10.90;;;;;;;18.40;67.82;94928.84;5043437;28;20309;-71
2023/05/15 10:52:37;;;;;;;14.85;10.68;;;;;;;18.46;67.49;94917.34;5041693;28;20282;-73
2023/05/15 10:55:07;;;;;;;12.05;10.57;;;;;;;18.58;67.85;94913.94;5042760;28;20210;-71
2023/05/15 10:57:34;;;;;;;13.85;10.30;;;;;;;18.53;67.61;94913.44;5041811;28;20206;-72
2023/05/15 11:00:04;;;;;;;10.85;9.95;;;;;;;18.61;68.16;94924.88;5045504;28;20763;-71
2023/05/15 11:02:37;;;;;;;11.75;10.50;;;;;;;18.24;68.18;94911.03;5043658;28;20328;-72
2023/05/15 11:05:07;;;;;;;13.77;11.95;;;;;;;18.00;68.25;94905.75;5042633;28;20739;-71
2023/05/15 11:07:33;;;;;;;15.82;11.85;;;;;;;17.93;69.13;94888.25;5042477;28;20199;-72
2023/05/15 11:10:00;;;;;;;16.35;12.18;;;;;;;17.87;70.14;94888.63;5042315;28;20210;-71
2023/05/15 11:12:56;;;;;;;16.90;12.18;;;;;;;17.72;70.99;94908.47;5043036;28;20206;-70
2023/05/15 11:15:23;;;;;;;17.13;13.07;;;;;;;17.74;70.86;94900.66;5041179;28;20309;-70
2023/05/15 11:18:03;;;;;;;17.00;11.98;;;;;;;17.60;71.00;94907.44;5040649;28;20295;-70
2023/05/15 11:20:38;;;;;;;14.88;12.93;;;;;;;17.56;71.65;94892.34;5040267;28;20221;-71
2023/05/15 11:23:05;;;;;;;16.60;13.02;;;;;;;17.57;72.23;94894.78;5042294;28;20225;-73
2023/05/15 11:25:34;;;;;;;16.27;13.77;;;;;;;17.81;71.56;94915.59;5040431;28;20230;-71